Página principal
METAR-TAF:

METAR-TAF

Aeroportos :

Belgrado, Sérvia

Aeroporto Internacional de Belgrado

latitude: 44-49N, longitude: 020-17E, altura: 96 m

Observação actual do tempo

O boletim foi feito há 27 minutos, às 23:30 UTC
Vento 5 kt de sudeste
Temperatura 22°C
Humidade 60%
Pressão 1015 hPa
Visibilidade 10 km ou mais
sem nuvens abaixo de 1500 metros e sem cumulonimbus

METAR: LYBE 182330Z 13005KT CAVOK 22/14 Q1015 NOSIG

Hora: 01:57 (23:57 UTC)

Previsão

O boletim foi feito há 57 minutos, às 23:00 UTC
Previsão válida de 19 às 00 UTC a 19 às 24 UTC
Vento 6 kt de es-sudeste
Visibilidade 10 km ou mais
sem nuvens abaixo de 1500 metros e sem cumulonimbus
Temporariamente
de 19 às 09 UTC a 19 às 13 UTC
Vento 16 kt de sudeste

TAF: LYBE 182300Z 1900/1924 12006KT CAVOK TX36/1814Z TN20/1903Z TEMPO 1909/1913 14016KT

Observações e previsões do tempo de mais de 4000 aeroportos (mensagens METAR e TAF).

As estações disponíveis são os pontos amarelos e vermelhos sobre o mapa.

Mova o rato sobre o mapa para ver o nome da estação.

Depois clique no ponto para visualizar as observações e previsões meteorológicas.

Para alterar o mapa : clique nos botões verdes com uma cruz preta para aumentar o zoom; no botão verde com uma pitada de zoom; ou nas setas verdes para mapas adjacentes.


METAR-TAF: